Time;durP1;ratioP1;P1;durP2;ratioP2;P2;SDS_P1;SDS_P2;PMS_P1;PMS_P2;Temp;Humidity;BMP_temperature;BMP_pressure;BME280_temperature;BME280_humidity;BME280_pressure;Samples;Min_cycle;Max_cycle;Signal;HPM_P1;HPM_P2
2021/07/28 00:00:51;;;;;;;5.10;4.10;;;25.30;66.10;;;;;;5050974;28;20041;-46
2021/07/28 00:03:17;;;;;;;5.15;4.10;;;25.30;66.20;;;;;;5051584;28;20033;-46
2021/07/28 00:05:42;;;;;;;5.03;4.13;;;25.30;66.20;;;;;;5050160;28;20029;-46
2021/07/28 00:08:09;;;;;;;4.88;3.65;;;25.30;66.10;;;;;;5050842;28;20094;-46
2021/07/28 00:10:34;;;;;;;4.57;3.75;;;25.30;66.20;;;;;;5049913;28;20079;-55
2021/07/28 00:13:00;;;;;;;4.68;3.60;;;25.30;66.30;;;;;;5051986;28;20060;-55
2021/07/28 00:15:26;;;;;;;4.03;3.60;;;25.20;66.20;;;;;;5071365;28;20103;-46
2021/07/28 00:17:57;;;;;;;6.55;3.60;;;25.30;66.30;;;;;;5066843;28;20025;-47
2021/07/28 00:25:36;;;;;;;3.85;3.45;;;25.20;66.10;;;;;;5053297;28;20036;-47
2021/07/28 00:28:03;;;;;;;4.68;3.83;;;25.20;66.30;;;;;;5053800;28;20087;-47
2021/07/28 00:30:29;;;;;;;4.45;4.05;;;25.20;66.10;;;;;;5054003;28;20527;-46
2021/07/28 00:32:55;;;;;;;4.18;3.72;;;25.20;66.00;;;;;;5053376;28;20041;-49
2021/07/28 00:35:20;;;;;;;4.57;3.70;;;25.20;66.00;;;;;;5054424;28;20025;-47
2021/07/28 00:37:46;;;;;;;5.38;4.18;;;25.20;66.00;;;;;;5053524;28;20086;-46
2021/07/28 00:40:13;;;;;;;6.50;4.75;;;25.20;65.90;;;;;;5063635;28;20040;-46
2021/07/28 00:42:39;;;;;;;4.82;3.90;;;25.20;66.00;;;;;;5059428;28;20032;-46
2021/07/28 00:45:05;;;;;;;4.65;4.00;;;25.20;66.00;;;;;;5074475;28;20017;-47
2021/07/28 00:47:30;;;;;;;4.78;3.70;;;25.20;65.90;;;;;;5074443;28;20355;-46
2021/07/28 00:49:56;;;;;;;4.07;3.63;;;25.20;65.90;;;;;;5055083;28;20040;-46
2021/07/28 00:52:22;;;;;;;4.47;3.67;;;25.20;66.00;;;;;;5053967;28;20123;-46
2021/07/28 00:54:48;;;;;;;5.00;3.90;;;25.20;66.00;;;;;;5052858;28;20378;-47
2021/07/28 00:57:14;;;;;;;4.80;4.30;;;25.20;65.90;;;;;;5053917;28;20033;-47
2021/07/28 00:59:40;;;;;;;4.82;3.88;;;25.20;66.10;;;;;;5052550;28;20056;-48
2021/07/28 01:02:06;;;;;;;4.47;3.60;;;25.20;65.90;;;;;;5053051;28;20053;-46
2021/07/28 01:04:31;;;;;;;4.90;3.95;;;25.20;66.00;;;;;;5053384;28;20394;-47
2021/07/28 01:06:59;;;;;;;4.47;3.53;;;25.20;65.90;;;;;;5051820;28;20041;-55
2021/07/28 01:09:28;;;;;;;4.80;3.80;;;25.20;66.80;;;;;;5042639;28;20118;-47
2021/07/28 01:11:56;;;;;;;4.05;3.38;;;25.20;66.60;;;;;;5050785;28;20107;-47
2021/07/28 01:14:21;;;;;;;4.03;3.63;;;25.20;66.40;;;;;;5073729;28;20032;-46
2021/07/28 01:16:47;;;;;;;4.07;3.50;;;25.20;66.30;;;;;;5072790;28;20101;-46
2021/07/28 01:19:16;;;;;;;3.92;3.28;;;25.20;66.10;;;;;;5062762;28;20029;-47
2021/07/28 01:21:44;;;;;;;3.88;3.40;;;25.20;66.00;;;;;;5052028;28;20048;-46
2021/07/28 01:24:12;;;;;;;3.95;3.25;;;25.20;66.10;;;;;;5052993;28;20033;-47
2021/07/28 01:26:38;;;;;;;4.32;3.30;;;25.20;66.10;;;;;;5052332;28;20025;-48
2021/07/28 01:29:05;;;;;;;3.67;3.30;;;25.20;66.00;;;;;;5051751;28;20040;-47
2021/07/28 01:31:41;;;;;;;3.90;3.47;;;25.20;66.10;;;;;;5053449;28;20037;-47
2021/07/28 01:34:10;;;;;;;4.70;3.70;;;25.20;66.10;;;;;;5046081;28;20030;-47
2021/07/28 01:36:38;;;;;;;3.83;3.42;;;25.20;66.00;;;;;;5052411;28;20025;-55
2021/07/28 01:39:08;;;;;;;4.18;3.53;;;25.20;65.90;;;;;;5053479;28;20469;-48
2021/07/28 01:41:34;;;;;;;5.13;3.50;;;25.20;65.90;;;;;;5052896;28;20061;-55
2021/07/28 01:43:59;;;;;;;4.35;3.40;;;25.20;66.00;;;;;;5060188;28;20025;-47
2021/07/28 01:46:25;;;;;;;4.10;3.10;;;25.20;66.10;;;;;;5053047;28;20028;-47
2021/07/28 01:48:51;;;;;;;5.05;3.45;;;25.20;65.90;;;;;;5052061;28;20107;-47
2021/07/28 01:51:16;;;;;;;3.85;3.53;;;25.20;66.00;;;;;;5053033;28;20033;-47
2021/07/28 01:53:43;;;;;;;4.13;3.72;;;25.20;65.90;;;;;;5051703;28;20094;-47
2021/07/28 01:56:10;;;;;;;4.60;4.10;;;25.20;66.10;;;;;;5052493;28;20045;-47
2021/07/28 01:58:39;;;;;;;3.55;3.25;;;25.20;65.90;;;;;;5050619;28;20025;-54
2021/07/28 02:01:05;;;;;;;3.85;2.90;;;25.20;65.80;;;;;;5052187;28;20130;-47
2021/07/28 02:03:31;;;;;;;4.45;3.58;;;25.20;65.90;;;;;;5052609;28;20037;-46
2021/07/28 02:05:56;;;;;;;4.65;3.63;;;25.20;65.90;;;;;;5050203;28;20069;-46
2021/07/28 02:08:22;;;;;;;4.00;3.60;;;25.20;65.90;;;;;;5069558;28;20454;-49
2021/07/28 02:10:50;;;;;;;3.92;3.47;;;25.20;65.90;;;;;;5051109;28;20037;-46
2021/07/28 02:13:17;;;;;;;3.45;3.15;;;25.20;65.90;;;;;;5051921;28;20455;-46
2021/07/28 02:15:44;;;;;;;3.60;3.30;;;25.20;65.90;;;;;;5051579;28;20033;-47
2021/07/28 02:18:10;;;;;;;3.85;3.45;;;25.20;65.90;;;;;;5052252;28;20032;-47
2021/07/28 02:20:36;;;;;;;4.95;3.72;;;25.20;65.90;;;;;;5051654;28;20040;-55
2021/07/28 02:23:03;;;;;;;3.90;3.17;;;25.20;66.00;;;;;;5051399;28;20033;-46
2021/07/28 02:25:29;;;;;;;5.57;3.30;;;25.20;65.80;;;;;;5052103;28;20055;-46
2021/07/28 02:27:55;;;;;;;3.30;2.97;;;25.20;65.90;;;;;;5051234;28;20025;-47
2021/07/28 02:30:20;;;;;;;3.75;3.35;;;25.20;65.80;;;;;;5052824;28;20235;-46
2021/07/28 02:32:47;;;;;;;4.03;3.40;;;25.20;65.90;;;;;;5051081;28;20036;-47
2021/07/28 02:35:13;;;;;;;4.50;3.45;;;25.20;65.80;;;;;;5051055;28;20438;-46
2021/07/28 02:37:44;;;;;;;5.10;3.40;;;25.20;65.80;;;;;;5058595;28;20021;-54
2021/07/28 02:40:14;;;;;;;3.25;2.95;;;25.20;65.80;;;;;;5052033;28;20060;-47
2021/07/28 02:42:40;;;;;;;3.80;3.25;;;25.20;65.80;;;;;;5051291;28;20029;-48
2021/07/28 02:45:07;;;;;;;4.43;3.15;;;25.20;65.80;;;;;;5051248;28;20029;-47
2021/07/28 02:47:32;;;;;;;3.47;2.92;;;25.20;65.80;;;;;;5051508;28;20032;-46
2021/07/28 02:49:58;;;;;;;4.65;3.22;;;25.20;65.70;;;;;;5050577;28;20025;-46
2021/07/28 02:52:24;;;;;;;3.55;3.25;;;25.20;65.60;;;;;;5051583;28;20029;-46
2021/07/28 02:54:49;;;;;;;4.05;3.20;;;25.20;65.60;;;;;;5050927;28;20029;-47
2021/07/28 02:57:15;;;;;;;3.75;3.20;;;25.20;65.50;;;;;;5051854;28;20057;-49
2021/07/28 02:59:40;;;;;;;5.03;2.97;;;25.20;65.60;;;;;;5050108;28;20126;-47
2021/07/28 03:02:06;;;;;;;3.53;2.95;;;25.20;65.50;;;;;;5051303;28;20041;-49
2021/07/28 03:04:32;;;;;;;3.58;3.25;;;25.20;65.50;;;;;;5051183;28;20070;-49
2021/07/28 03:06:57;;;;;;;3.42;3.13;;;25.20;65.30;;;;;;5057365;28;20056;-46
2021/07/28 03:09:23;;;;;;;3.40;3.03;;;25.20;65.30;;;;;;5058571;28;20025;-48
2021/07/28 03:11:49;;;;;;;4.18;3.40;;;25.20;65.50;;;;;;5050335;28;20051;-47
2021/07/28 03:14:14;;;;;;;3.45;3.05;;;25.20;65.30;;;;;;5050945;28;20107;-46
2021/07/28 03:16:40;;;;;;;4.47;2.83;;;25.20;65.40;;;;;;5050790;28;20059;-56
2021/07/28 03:19:05;;;;;;;3.70;3.30;;;25.20;65.00;;;;;;5050993;28;20061;-48
2021/07/28 03:21:32;;;;;;;5.50;3.17;;;25.10;65.10;;;;;;5051547;28;20087;-48
2021/07/28 03:23:58;;;;;;;3.30;2.92;;;25.10;65.30;;;;;;5050397;28;20037;-53
2021/07/28 03:26:24;;;;;;;5.80;3.42;;;25.10;65.10;;;;;;5058720;28;20082;-49
2021/07/28 03:28:49;;;;;;;5.88;3.47;;;25.10;65.10;;;;;;5049136;28;20069;-49
2021/07/28 03:31:15;;;;;;;3.42;2.85;;;25.10;65.20;;;;;;5050768;28;20037;-48
2021/07/28 03:33:41;;;;;;;5.65;3.75;;;25.10;65.10;;;;;;5050420;28;20029;-56
2021/07/28 03:36:06;;;;;;;3.28;2.97;;;25.10;65.00;;;;;;5051087;28;20025;-49
2021/07/28 03:38:32;;;;;;;3.47;3.17;;;25.10;65.00;;;;;;5058386;28;20103;-47
2021/07/28 03:40:57;;;;;;;3.10;2.80;;;25.10;65.10;;;;;;5050373;28;20037;-49
2021/07/28 03:43:23;;;;;;;4.20;3.20;;;25.10;65.00;;;;;;5051170;28;20021;-48
2021/07/28 03:45:49;;;;;;;3.10;2.80;;;25.10;65.00;;;;;;5066336;28;20454;-47
2021/07/28 03:48:14;;;;;;;4.10;3.00;;;25.20;65.00;;;;;;5051578;28;20032;-47
2021/07/28 03:50:40;;;;;;;3.25;2.92;;;25.10;65.00;;;;;;5050602;28;20024;-57
2021/07/28 03:53:06;;;;;;;3.92;2.75;;;25.10;64.90;;;;;;5050944;28;20029;-46
2021/07/28 03:55:32;;;;;;;3.30;3.00;;;25.10;65.10;;;;;;5051144;28;20524;-47
2021/07/28 03:57:57;;;;;;;3.72;3.13;;;25.10;64.90;;;;;;5049959;28;20025;-47
2021/07/28 04:00:23;;;;;;;3.03;2.72;;;25.10;64.80;;;;;;5053387;28;20052;-48
2021/07/28 04:02:49;;;;;;;3.40;2.60;;;25.10;65.30;;;;;;5053845;28;20378;-46
2021/07/28 04:05:15;;;;;;;2.78;2.42;;;25.10;65.40;;;;;;5054379;28;20448;-46
2021/07/28 04:07:42;;;;;;;3.92;2.95;;;25.20;65.60;;;;;;5055722;28;20381;-57
2021/07/28 04:10:08;;;;;;;2.65;2.45;;;25.20;65.70;;;;;;5054036;28;20029;-47
2021/07/28 04:12:34;;;;;;;3.00;2.70;;;25.20;65.70;;;;;;5053787;28;20387;-46
2021/07/28 04:14:59;;;;;;;3.28;2.88;;;25.20;65.60;;;;;;5053813;28;20029;-46
2021/07/28 04:17:25;;;;;;;4.28;2.90;;;25.20;65.60;;;;;;5054009;28;20466;-47
2021/07/28 04:19:51;;;;;;;3.05;2.75;;;25.20;65.60;;;;;;5053547;28;20496;-48
2021/07/28 04:22:18;;;;;;;3.00;2.60;;;25.20;65.60;;;;;;5053962;28;20037;-46
2021/07/28 04:24:44;;;;;;;3.13;2.80;;;25.20;65.60;;;;;;5052767;28;20609;-48
2021/07/28 04:27:10;;;;;;;3.38;2.80;;;25.20;65.70;;;;;;5053515;28;20104;-48
2021/07/28 04:29:36;;;;;;;3.35;2.95;;;25.20;65.60;;;;;;5053972;28;20029;-47
2021/07/28 04:32:01;;;;;;;3.00;2.70;;;25.20;65.70;;;;;;5053361;28;20481;-47
2021/07/28 04:34:27;;;;;;;3.22;2.92;;;25.20;65.70;;;;;;5053780;28;20063;-47
2021/07/28 04:36:52;;;;;;;3.30;2.97;;;25.20;65.50;;;;;;5053154;28;20025;-46
2021/07/28 04:39:18;;;;;;;2.78;2.47;;;25.20;65.60;;;;;;5052463;28;20466;-46
2021/07/28 04:41:44;;;;;;;3.22;2.90;;;25.20;65.60;;;;;;5052259;28;20037;-55
2021/07/28 04:44:09;;;;;;;4.25;3.03;;;25.20;65.70;;;;;;5049992;28;20021;-46
2021/07/28 04:46:35;;;;;;;2.90;2.40;;;25.20;65.70;;;;;;5054510;28;20013;-46
2021/07/28 04:49:00;;;;;;;3.30;2.95;;;25.20;65.70;;;;;;5052791;28;20603;-46
2021/07/28 04:51:26;;;;;;;2.60;2.40;;;25.20;65.60;;;;;;5053464;28;20036;-47
2021/07/28 04:53:52;;;;;;;3.60;2.80;;;25.20;65.70;;;;;;5052935;28;20399;-48
2021/07/28 04:56:18;;;;;;;3.20;2.80;;;25.20;65.60;;;;;;5053812;28;20094;-49
2021/07/28 04:58:43;;;;;;;3.50;2.95;;;25.20;65.70;;;;;;5052390;28;20486;-54
2021/07/28 05:01:09;;;;;;;2.90;2.60;;;25.20;65.80;;;;;;5053044;28;20053;-48
2021/07/28 05:03:35;;;;;;;3.28;2.60;;;25.20;65.70;;;;;;5053333;28;20447;-46
2021/07/28 05:06:00;;;;;;;3.85;3.03;;;25.10;65.50;;;;;;5052730;28;20105;-48
2021/07/28 05:08:26;;;;;;;3.75;3.00;;;25.20;64.90;;;;;;5053233;28;20021;-46
2021/07/28 05:10:52;;;;;;;3.83;3.08;;;25.20;64.40;;;;;;5050851;28;20044;-46
2021/07/28 05:13:17;;;;;;;3.75;2.90;;;25.20;64.50;;;;;;5053083;28;20036;-46
2021/07/28 05:15:44;;;;;;;3.33;2.90;;;25.20;64.60;;;;;;5053065;28;20710;-55
2021/07/28 05:18:09;;;;;;;2.97;2.58;;;25.20;64.60;;;;;;5052177;28;20052;-49
2021/07/28 05:20:35;;;;;;;3.15;2.85;;;25.20;64.70;;;;;;5052786;28;20029;-46
2021/07/28 05:23:00;;;;;;;3.78;2.88;;;25.20;64.70;;;;;;5052110;28;20025;-50
2021/07/28 05:25:28;;;;;;;4.45;3.15;;;25.10;64.50;;;;;;5050939;28;20029;-48
2021/07/28 05:27:54;;;;;;;3.47;2.67;;;25.10;64.50;;;;;;5054550;28;20032;-47
2021/07/28 05:30:20;;;;;;;3.88;2.90;;;25.10;64.70;;;;;;5050127;28;20033;-47
2021/07/28 05:32:45;;;;;;;3.33;2.85;;;25.10;64.70;;;;;;5050910;28;20043;-55
2021/07/28 05:35:12;;;;;;;2.92;2.53;;;25.10;65.00;;;;;;5060257;28;20036;-49
2021/07/28 05:37:37;;;;;;;2.90;2.60;;;25.10;65.20;;;;;;5073342;28;20501;-48
2021/07/28 05:40:04;;;;;;;3.50;3.15;;;25.20;65.20;;;;;;5052536;28;20032;-46
2021/07/28 05:42:29;;;;;;;3.30;2.50;;;25.20;65.10;;;;;;5053052;28;20079;-49
2021/07/28 05:44:55;;;;;;;6.68;4.22;;;25.20;65.30;;;;;;5052002;28;20025;-46
2021/07/28 05:47:21;;;;;;;7.32;4.80;;;24.80;63.70;;;;;;5053097;28;20028;-46
2021/07/28 05:49:46;;;;;;;7.30;4.18;;;24.00;65.70;;;;;;5052273;28;20078;-54
2021/07/28 05:52:12;;;;;;;7.32;4.03;;;23.60;67.30;;;;;;5051933;28;20103;-47
2021/07/28 05:54:37;;;;;;;8.32;5.20;;;23.30;68.20;;;;;;5056048;28;20090;-46
2021/07/28 05:57:03;;;;;;;6.85;4.30;;;23.30;68.80;;;;;;5052465;28;20029;-45
2021/07/28 05:59:29;;;;;;;5.85;4.40;;;23.30;69.30;;;;;;5051924;28;20056;-50
2021/07/28 06:01:54;;;;;;;5.68;4.30;;;23.20;69.40;;;;;;5051882;28;20045;-47
2021/07/28 06:04:20;;;;;;;7.30;4.28;;;23.20;69.90;;;;;;5052180;28;20025;-50
2021/07/28 06:06:46;;;;;;;6.13;3.90;;;23.10;69.90;;;;;;5052727;28;20028;-47
2021/07/28 06:09:11;;;;;;;5.38;4.30;;;23.20;69.70;;;;;;5051121;28;20033;-47
2021/07/28 06:11:37;;;;;;;6.28;4.25;;;23.10;69.30;;;;;;5051535;28;20033;-47
2021/07/28 06:14:02;;;;;;;5.82;3.58;;;23.10;68.00;;;;;;5052023;28;20032;-45
2021/07/28 06:16:28;;;;;;;5.93;3.78;;;23.10;67.80;;;;;;5051871;28;20037;-46
2021/07/28 06:18:54;;;;;;;6.32;3.90;;;23.00;67.80;;;;;;5051255;28;20036;-46
2021/07/28 06:21:20;;;;;;;6.00;3.95;;;23.00;67.80;;;;;;5051496;28;20068;-49
2021/07/28 06:23:45;;;;;;;4.43;3.65;;;23.10;67.70;;;;;;5056588;28;20063;-50
2021/07/28 06:26:11;;;;;;;5.57;3.88;;;23.00;66.40;;;;;;5071550;28;20032;-46
2021/07/28 06:28:37;;;;;;;4.03;3.40;;;23.10;67.20;;;;;;5052631;28;20033;-47
2021/07/28 06:31:02;;;;;;;5.10;3.40;;;23.10;66.70;;;;;;5051164;28;20041;-45
2021/07/28 06:33:28;;;;;;;4.85;3.00;;;23.10;65.70;;;;;;5051495;28;20432;-46
2021/07/28 06:35:54;;;;;;;7.22;3.97;;;23.10;66.10;;;;;;5051382;28;20029;-51
2021/07/28 06:38:20;;;;;;;7.32;3.65;;;23.10;66.50;;;;;;5050160;28;20355;-46
2021/07/28 06:40:46;;;;;;;4.05;3.50;;;23.00;66.80;;;;;;5052469;28;20094;-47
2021/07/28 06:43:12;;;;;;;5.65;3.58;;;23.00;67.00;;;;;;5050991;28;20100;-46
2021/07/28 06:45:38;;;;;;;5.82;3.42;;;23.10;66.70;;;;;;5052498;28;20470;-46
2021/07/28 06:48:04;;;;;;;5.00;3.40;;;23.50;65.50;;;;;;5051211;28;20074;-46
2021/07/28 06:50:29;;;;;;;3.92;3.20;;;23.80;64.90;;;;;;5051947;28;20033;-45
2021/07/28 06:52:55;;;;;;;4.53;2.97;;;23.90;64.50;;;;;;5048375;28;20453;-47
2021/07/28 06:55:21;;;;;;;4.45;3.35;;;24.10;64.20;;;;;;5058089;28;20059;-48
2021/07/28 06:57:46;;;;;;;8.90;3.47;;;24.20;63.80;;;;;;5051977;28;20033;-46
2021/07/28 07:00:12;;;;;;;6.43;3.40;;;24.30;63.80;;;;;;5050670;28;20814;-46
2021/07/28 07:02:38;;;;;;;5.80;3.28;;;24.30;63.70;;;;;;5050431;28;20044;-46
2021/07/28 07:05:05;;;;;;;3.88;3.22;;;24.30;63.80;;;;;;5050563;28;20029;-46
2021/07/28 07:07:31;;;;;;;4.38;3.17;;;24.20;64.00;;;;;;5051602;28;20054;-47
2021/07/28 07:09:56;;;;;;;5.22;3.30;;;24.30;64.30;;;;;;5050295;28;20024;-48
2021/07/28 07:12:23;;;;;;;4.28;3.05;;;24.30;64.50;;;;;;5051644;28;20021;-46
2021/07/28 07:14:49;;;;;;;4.30;3.33;;;24.20;64.50;;;;;;5051606;28;20037;-46
2021/07/28 07:17:15;;;;;;;5.18;3.50;;;24.20;64.50;;;;;;5050113;28;20036;-46
2021/07/28 07:19:41;;;;;;;5.53;3.70;;;24.30;64.40;;;;;;5051169;28;20033;-46
2021/07/28 07:22:07;;;;;;;5.35;3.10;;;24.20;64.40;;;;;;5050561;28;20079;-46
2021/07/28 07:24:33;;;;;;;4.63;3.17;;;24.20;64.20;;;;;;5050955;28;20033;-46
2021/07/28 07:26:59;;;;;;;5.55;3.30;;;24.20;64.60;;;;;;5050294;28;20027;-47
2021/07/28 07:29:25;;;;;;;4.15;3.35;;;24.20;64.40;;;;;;5049529;28;20422;-46
2021/07/28 07:31:51;;;;;;;6.22;3.20;;;24.20;64.30;;;;;;5050691;28;20033;-54
2021/07/28 07:34:16;;;;;;;4.60;3.45;;;24.30;64.20;;;;;;5053728;28;20025;-46
2021/07/28 07:36:42;;;;;;;4.03;3.35;;;24.30;64.10;;;;;;5055278;28;20028;-46
2021/07/28 07:39:08;;;;;;;4.60;3.58;;;24.30;63.90;;;;;;5053027;28;20079;-49
2021/07/28 07:41:34;;;;;;;4.72;3.22;;;24.30;63.80;;;;;;5055072;28;20051;-46
2021/07/28 07:44:01;;;;;;;5.70;3.80;;;24.30;63.70;;;;;;5054643;28;20063;-46
2021/07/28 07:46:27;;;;;;;5.35;3.30;;;24.30;63.70;;;;;;5055571;28;20031;-45
2021/07/28 07:48:53;;;;;;;5.05;3.22;;;24.30;63.70;;;;;;5054909;28;20070;-55
2021/07/28 07:51:23;;;;;;;4.05;3.58;;;24.30;63.60;;;;;;5054688;28;20040;-46
2021/07/28 07:53:49;;;;;;;5.20;3.65;;;24.30;63.60;;;;;;5055070;28;20069;-46
2021/07/28 07:56:14;;;;;;;3.90;3.40;;;24.30;63.60;;;;;;5053883;28;20032;-46
2021/07/28 07:58:40;;;;;;;6.05;3.38;;;24.20;63.40;;;;;;5048112;28;20108;-46
2021/07/28 08:01:09;;;;;;;4.68;3.17;;;24.20;63.50;;;;;;5051472;28;20198;-46
2021/07/28 08:03:42;;;;;;;5.50;3.55;;;24.20;63.30;;;;;;5053678;28;20033;-46
2021/07/28 08:06:09;;;;;;;4.70;3.15;;;24.30;63.40;;;;;;5052495;28;20036;-48
2021/07/28 08:08:35;;;;;;;4.47;3.40;;;24.20;63.30;;;;;;5054200;28;20033;-46
2021/07/28 08:11:08;;;;;;;4.53;3.45;;;24.20;63.30;;;;;;5053852;28;20029;-46
2021/07/28 08:13:34;;;;;;;4.47;3.08;;;24.20;63.30;;;;;;5054742;28;20108;-47
2021/07/28 08:16:01;;;;;;;5.00;3.75;;;24.30;63.20;;;;;;5054006;28;20147;-46
2021/07/28 08:18:26;;;;;;;5.15;3.38;;;24.30;63.10;;;;;;5054513;28;20032;-46
2021/07/28 08:20:52;;;;;;;6.25;3.15;;;24.30;63.00;;;;;;5054062;28;20474;-55
2021/07/28 08:23:18;;;;;;;7.38;3.33;;;24.30;63.10;;;;;;5053628;28;20032;-46
2021/07/28 08:25:43;;;;;;;4.35;2.97;;;24.30;63.10;;;;;;5053915;28;20478;-46
2021/07/28 08:28:12;;;;;;;6.55;3.67;;;24.20;63.10;;;;;;5053290;28;20029;-46
2021/07/28 08:30:39;;;;;;;5.22;3.42;;;24.20;63.00;;;;;;5053770;28;20049;-47
2021/07/28 08:33:04;;;;;;;5.40;3.40;;;24.20;63.00;;;;;;5052792;28;20033;-46
2021/07/28 08:35:30;;;;;;;5.78;3.67;;;24.20;63.00;;;;;;5054295;28;20028;-46
2021/07/28 08:37:56;;;;;;;4.75;3.40;;;24.30;63.00;;;;;;5053160;28;20025;-47
2021/07/28 08:40:21;;;;;;;6.90;3.70;;;24.30;63.00;;;;;;5054343;28;20103;-46
2021/07/28 08:42:49;;;;;;;6.25;3.47;;;24.30;62.90;;;;;;5054339;28;20081;-47
2021/07/28 08:45:17;;;;;;;4.18;3.17;;;24.30;63.00;;;;;;5052183;28;20563;-46
2021/07/28 08:47:44;;;;;;;6.10;3.40;;;24.30;62.90;;;;;;5054124;28;20433;-47
2021/07/28 08:50:11;;;;;;;4.38;3.60;;;24.30;62.80;;;;;;5052677;28;20087;-46
2021/07/28 08:52:39;;;;;;;6.38;3.10;;;24.20;62.80;;;;;;5053462;28;20037;-46
2021/07/28 08:55:06;;;;;;;4.60;3.15;;;24.30;62.80;;;;;;5063597;28;20381;-48
2021/07/28 08:57:33;;;;;;;5.15;3.13;;;24.30;62.70;;;;;;5053856;28;20109;-46
2021/07/28 09:00:00;;;;;;;6.13;3.35;;;24.30;62.60;;;;;;5052162;28;20036;-47
2021/07/28 09:02:26;;;;;;;4.13;3.30;;;24.30;62.60;;;;;;5053774;28;20044;-46
2021/07/28 09:04:55;;;;;;;4.28;3.38;;;24.40;62.50;;;;;;5053860;28;20469;-46
2021/07/28 09:07:22;;;;;;;5.32;3.65;;;24.50;62.40;;;;;;5053442;28;20473;-46
2021/07/28 09:09:50;;;;;;;5.18;3.25;;;24.50;62.20;;;;;;5053701;28;20461;-46
2021/07/28 09:12:16;;;;;;;4.57;3.30;;;24.50;62.20;;;;;;5053012;28;20072;-46
2021/07/28 09:14:52;;;;;;;4.68;3.90;;;24.60;62.00;;;;;;5053712;28;20028;-46
2021/07/28 09:17:20;;;;;;;6.05;3.50;;;24.50;62.10;;;;;;5052508;28;20033;-46
2021/07/28 09:19:50;;;;;;;4.25;3.25;;;24.40;62.10;;;;;;5053412;28;20025;-47
2021/07/28 09:22:21;;;;;;;5.15;3.40;;;24.50;62.20;;;;;;5052349;28;20032;-46
2021/07/28 09:25:06;;;;;;;4.60;3.30;;;24.50;62.10;;;;;;5053127;28;20108;-46
2021/07/28 09:27:44;;;;;;;4.95;3.58;;;24.50;62.20;;;;;;5053181;28;20252;-46
2021/07/28 09:30:33;;;;;;;4.38;2.80;;;24.50;61.90;;;;;;5055706;28;20028;-46
2021/07/28 09:33:12;;;;;;;5.03;2.80;;;24.50;61.90;;;;;;5064849;28;20029;-47
2021/07/28 09:35:50;;;;;;;4.07;2.88;;;24.40;61.70;;;;;;5062572;28;20033;-46
2021/07/28 09:38:37;;;;;;;6.43;3.58;;;24.50;61.80;;;;;;5045148;28;20099;-46
2021/07/28 09:41:20;;;;;;;4.78;3.30;;;24.40;61.70;;;;;;5051928;28;20052;-46
2021/07/28 09:43:57;;;;;;;4.10;3.28;;;24.40;61.70;;;;;;5053022;28;20079;-46
2021/07/28 09:46:29;;;;;;;6.05;3.28;;;24.40;61.60;;;;;;5052171;28;20027;-46
2021/07/28 09:48:57;;;;;;;4.38;3.42;;;24.40;61.50;;;;;;5052829;28;20076;-54
2021/07/28 09:51:25;;;;;;;5.88;3.20;;;24.40;61.60;;;;;;5052325;28;20097;-46
2021/07/28 09:53:59;;;;;;;4.07;3.30;;;24.40;61.70;;;;;;5058048;28;20031;-46
2021/07/28 09:56:28;;;;;;;5.40;3.55;;;24.40;61.40;;;;;;5072733;28;20382;-46
2021/07/28 09:59:04;;;;;;;4.50;3.60;;;24.40;61.40;;;;;;5054336;28;20025;-46
2021/07/28 10:01:34;;;;;;;6.05;3.58;;;24.40;61.40;;;;;;5051835;28;20041;-48
2021/07/28 10:04:01;;;;;;;4.43;3.20;;;24.40;61.20;;;;;;5052036;28;20060;-54
2021/07/28 10:06:33;;;;;;;4.72;3.25;;;24.40;61.30;;;;;;5052315;28;20068;-46
2021/07/28 10:09:00;;;;;;;4.95;3.17;;;24.40;61.30;;;;;;5051570;28;20060;-53
2021/07/28 10:11:26;;;;;;;4.20;3.15;;;24.40;61.20;;;;;;5051774;28;20033;-47
2021/07/28 10:13:52;;;;;;;4.50;3.13;;;24.50;61.30;;;;;;5052477;28;20041;-46
2021/07/28 10:16:18;;;;;;;3.65;3.05;;;24.50;61.20;;;;;;5051745;28;20087;-46
2021/07/28 10:18:49;;;;;;;5.50;3.22;;;24.50;61.00;;;;;;5052097;28;20052;-46
2021/07/28 10:21:16;;;;;;;4.22;3.00;;;24.50;60.90;;;;;;5050132;28;20037;-46
2021/07/28 10:23:47;;;;;;;3.42;2.85;;;24.50;60.80;;;;;;5056322;28;20453;-46
2021/07/28 10:26:13;;;;;;;3.88;2.92;;;24.50;60.60;;;;;;5071438;28;20040;-46
2021/07/28 10:28:46;;;;;;;4.50;3.28;;;24.50;60.70;;;;;;5072218;28;20055;-46
2021/07/28 10:31:13;;;;;;;4.72;3.00;;;24.50;60.70;;;;;;5071301;28;20040;-50
2021/07/28 10:33:52;;;;;;;3.90;2.88;;;24.50;60.60;;;;;;5068368;28;20041;-46
2021/07/28 10:36:19;;;;;;;4.35;3.13;;;24.50;60.50;;;;;;5051003;28;20032;-49
2021/07/28 10:38:58;;;;;;;3.90;3.05;;;24.50;60.50;;;;;;5051961;28;20120;-46
2021/07/28 10:41:44;;;;;;;6.32;3.58;;;24.60;60.30;;;;;;5051550;28;20178;-46
2021/07/28 10:44:19;;;;;;;3.92;3.15;;;24.60;60.40;;;;;;5051106;28;20029;-46
2021/07/28 10:46:54;;;;;;;5.20;3.10;;;24.60;60.40;;;;;;5051873;28;20024;-46
2021/07/28 10:49:34;;;;;;;5.43;3.30;;;24.60;60.10;;;;;;5051094;28;20568;-46
2021/07/28 10:52:03;;;;;;;5.63;3.00;;;24.60;60.10;;;;;;5050971;28;20032;-55
2021/07/28 10:54:52;;;;;;;5.78;3.08;;;24.50;59.90;;;;;;5054602;28;20060;-46
2021/07/28 10:57:37;;;;;;;4.03;3.28;;;24.50;59.90;;;;;;5050918;28;20028;-48
2021/07/28 11:00:11;;;;;;;3.85;3.05;;;24.60;59.90;;;;;;5050702;28;20048;-50
2021/07/28 11:02:52;;;;;;;3.95;2.85;;;24.60;59.70;;;;;;5051557;28;20100;-46
2021/07/28 11:05:20;;;;;;;5.43;2.92;;;24.60;59.70;;;;;;5050912;28;20040;-46
2021/07/28 11:08:06;;;;;;;4.40;2.70;;;24.60;59.80;;;;;;5052048;28;20024;-46
2021/07/28 11:10:37;;;;;;;6.47;3.13;;;24.60;59.80;;;;;;5051610;28;20037;-46
2021/07/28 11:13:05;;;;;;;4.30;2.97;;;24.60;59.80;;;;;;5051221;28;20025;-46
2021/07/28 11:15:31;;;;;;;5.43;3.40;;;24.60;59.70;;;;;;5050906;28;20029;-46
2021/07/28 11:17:58;;;;;;;5.55;3.58;;;24.60;59.50;;;;;;5052230;28;20112;-46
2021/07/28 11:20:44;;;;;;;5.85;3.08;;;24.60;59.70;;;;;;5051756;28;20355;-46
2021/07/28 11:23:23;;;;;;;5.45;3.08;;;24.60;59.90;;;;;;5051122;28;20045;-46
2021/07/28 11:25:48;;;;;;;5.82;3.30;;;24.60;59.80;;;;;;5038784;28;20040;-46
2021/07/28 11:28:17;;;;;;;3.97;3.00;;;24.70;60.00;;;;;;5051811;28;20458;-46
2021/07/28 11:30:43;;;;;;;4.32;2.95;;;24.60;59.90;;;;;;5051542;28;20056;-46
2021/07/28 11:33:16;;;;;;;3.97;3.33;;;24.70;59.80;;;;;;5050627;28;20035;-46
2021/07/28 11:35:43;;;;;;;5.55;3.30;;;24.70;59.60;;;;;;5051780;28;20032;-46
2021/07/28 11:38:23;;;;;;;6.80;3.20;;;24.70;59.60;;;;;;5051385;28;20029;-46
2021/07/28 11:40:51;;;;;;;3.97;2.90;;;24.70;59.80;;;;;;5050678;28;20397;-46
2021/07/28 11:43:27;;;;;;;3.90;2.70;;;24.60;59.60;;;;;;5050986;28;20017;-46
2021/07/28 11:46:05;;;;;;;5.10;3.33;;;24.70;59.60;;;;;;5051960;28;20090;-46
2021/07/28 11:48:32;;;;;;;4.05;2.45;;;24.70;59.70;;;;;;5052011;28;20104;-46
2021/07/28 11:50:58;;;;;;;4.55;2.60;;;24.80;59.60;;;;;;5051526;28;20071;-47
2021/07/28 11:53:26;;;;;;;4.05;2.92;;;24.80;59.80;;;;;;5052469;28;20037;-47
2021/07/28 11:56:04;;;;;;;3.60;2.65;;;24.70;59.60;;;;;;5071747;28;20119;-46
2021/07/28 11:58:30;;;;;;;4.63;2.88;;;24.70;59.50;;;;;;5063140;28;20036;-46
2021/07/28 12:00:55;;;;;;;2.97;2.60;;;24.80;59.40;;;;;;5051201;28;20056;-46
2021/07/28 12:03:28;;;;;;;3.47;2.65;;;24.80;59.40;;;;;;5050477;28;20142;-46
2021/07/28 12:06:01;;;;;;;5.22;3.20;;;24.80;59.50;;;;;;5051027;28;20033;-46
2021/07/28 12:08:37;;;;;;;7.32;3.50;;;24.80;59.20;;;;;;5051144;28;20462;-46
2021/07/28 12:11:12;;;;;;;3.53;2.75;;;24.80;59.00;;;;;;5050831;28;20470;-46
2021/07/28 12:13:45;;;;;;;4.63;2.80;;;24.80;59.20;;;;;;5051276;28;20025;-46
2021/07/28 12:16:12;;;;;;;3.35;2.53;;;24.80;59.30;;;;;;5050935;28;20028;-46
2021/07/28 12:18:49;;;;;;;4.40;2.80;;;24.80;59.10;;;;;;5051143;28;20033;-46
2021/07/28 12:21:15;;;;;;;6.13;2.95;;;24.80;58.80;;;;;;5053565;28;20141;-49
2021/07/28 12:23:57;;;;;;;3.90;2.78;;;24.80;59.00;;;;;;5059340;28;20032;-46
2021/07/28 12:26:50;;;;;;;4.63;3.20;;;24.90;59.20;;;;;;5073767;28;20104;-46
2021/07/28 12:29:37;;;;;;;4.32;3.05;;;24.80;58.60;;;;;;5060780;28;20037;-46
2021/07/28 12:32:16;;;;;;;3.58;2.60;;;24.80;58.30;;;;;;5054821;28;20477;-47
2021/07/28 12:34:42;;;;;;;3.58;2.85;;;24.80;58.20;;;;;;5053805;28;20060;-46
2021/07/28 12:37:20;;;;;;;6.22;2.78;;;24.80;58.30;;;;;;5053619;28;20032;-55
2021/07/28 12:39:46;;;;;;;6.82;3.60;;;24.90;58.40;;;;;;5054465;28;20044;-46
2021/07/28 12:42:11;;;;;;;3.88;2.78;;;24.90;58.40;;;;;;5053287;28;20470;-45
2021/07/28 12:44:37;;;;;;;3.85;2.60;;;24.90;58.60;;;;;;5054446;28;20025;-45
2021/07/28 12:47:03;;;;;;;4.00;2.75;;;24.90;58.30;;;;;;5053698;28;20040;-47
2021/07/28 12:49:28;;;;;;;5.93;3.10;;;25.00;58.20;;;;;;5069381;28;20044;-46
2021/07/28 12:51:54;;;;;;;3.50;2.65;;;24.90;58.30;;;;;;5061699;28;20390;-45
2021/07/28 12:54:19;;;;;;;3.65;2.47;;;25.00;57.70;;;;;;5062101;28;20033;-46
2021/07/28 12:56:45;;;;;;;5.18;2.78;;;25.00;58.20;;;;;;5074172;28;20029;-45